createdAt,value
2019-03-21T00:02:16.607Z,318.93
2019-03-21T00:04:48.095Z,322.10
2019-03-21T00:07:17.825Z,328.00
2019-03-21T00:09:50.600Z,327.20
2019-03-21T00:12:20.286Z,329.65
2019-03-21T00:14:53.159Z,325.00
2019-03-21T00:17:26.094Z,312.55
2019-03-21T00:19:55.729Z,331.43
2019-03-21T00:22:25.417Z,326.98
2019-03-21T00:24:55.163Z,317.20
2019-03-21T00:27:24.925Z,300.07
2019-03-21T00:29:54.596Z,312.82
2019-03-21T00:32:24.452Z,316.88
2019-03-21T00:34:54.031Z,317.65
2019-03-21T00:37:23.879Z,309.77
2019-03-21T00:39:53.455Z,308.83
2019-03-21T00:42:23.282Z,306.17
2019-03-21T00:44:52.872Z,301.60
2019-03-21T00:47:22.480Z,304.27
2019-03-21T00:49:52.232Z,312.15
2019-03-21T00:52:22.154Z,310.77
2019-03-21T00:54:51.729Z,301.10
2019-03-21T00:57:21.446Z,302.77
2019-03-21T00:59:51.098Z,302.07
2019-03-21T01:02:20.904Z,302.40
2019-03-21T01:04:50.605Z,299.10
2019-03-21T01:07:20.366Z,300.95
2019-03-21T01:09:49.964Z,292.68
2019-03-21T01:12:19.876Z,295.05
2019-03-21T01:14:49.486Z,287.85
2019-03-21T01:17:19.226Z,298.27
2019-03-21T01:19:48.951Z,289.47
2019-03-21T01:22:18.636Z,307.02
2019-03-21T01:24:48.257Z,288.87
2019-03-21T01:27:18.145Z,292.62
2019-03-21T01:29:47.801Z,296.57
2019-03-21T01:32:17.475Z,290.75
2019-03-21T01:34:47.097Z,287.27
2019-03-21T01:37:16.690Z,282.57
2019-03-21T01:39:47.481Z,294.65
2019-03-21T01:42:17.279Z,284.05
2019-03-21T01:44:46.987Z,281.63
2019-03-21T01:47:16.781Z,287.65
2019-03-21T01:49:46.377Z,298.35
2019-03-21T01:52:16.207Z,285.93
2019-03-21T01:54:45.801Z,284.92
2019-03-21T01:57:15.599Z,295.20
2019-03-21T01:59:45.214Z,295.67
2019-03-21T02:02:15.025Z,285.98
2019-03-21T02:04:44.716Z,287.05
2019-03-21T02:07:14.790Z,296.82
2019-03-21T02:09:45.589Z,283.87
2019-03-21T02:12:15.319Z,288.35
2019-03-21T02:14:52.056Z,285.40
2019-03-21T02:17:16.432Z,284.90
2019-03-21T02:19:46.064Z,284.95
2019-03-21T02:22:15.772Z,279.30
2019-03-21T02:24:45.495Z,280.83
2019-03-21T02:27:15.327Z,291.32
2019-03-21T02:29:44.955Z,275.93
2019-03-21T02:32:14.539Z,286.40
2019-03-21T02:34:44.177Z,282.25
2019-03-21T02:37:14.025Z,286.50
2019-03-21T02:39:58.218Z,269.65
2019-03-21T02:42:15.237Z,294.40
2019-03-21T02:44:46.485Z,290.68
2019-03-21T02:47:16.554Z,283.45
2019-03-21T02:49:46.158Z,275.22
2019-03-21T02:52:15.732Z,260.82
2019-03-21T02:54:45.354Z,268.67
2019-03-21T02:57:14.907Z,275.47
2019-03-21T02:59:44.610Z,268.48
2019-03-21T03:02:14.317Z,275.18
2019-03-21T03:04:44.095Z,271.57
2019-03-21T03:07:13.738Z,272.50
2019-03-21T03:09:43.509Z,264.77
2019-03-21T03:12:13.156Z,265.32
2019-03-21T03:14:43.150Z,275.45
2019-03-21T03:17:12.772Z,264.88
2019-03-21T03:19:42.412Z,274.52
2019-03-21T03:22:11.996Z,273.32
2019-03-21T03:24:41.793Z,268.45
2019-03-21T03:27:11.380Z,268.30
2019-03-21T03:29:42.267Z,264.25
2019-03-21T03:32:11.891Z,260.60
2019-03-21T03:34:41.713Z,267.93
2019-03-21T03:37:11.328Z,260.48
2019-03-21T03:39:41.109Z,272.70
2019-03-21T03:42:11.110Z,263.37
2019-03-21T03:44:40.940Z,266.45
2019-03-21T03:47:10.714Z,263.05
2019-03-21T03:49:40.305Z,272.30
2019-03-21T03:52:10.037Z,264.52
2019-03-21T03:54:39.801Z,258.53
2019-03-21T03:57:09.565Z,265.65
2019-03-21T03:59:39.705Z,257.10
2019-03-21T04:02:09.309Z,258.13
2019-03-21T04:04:39.071Z,251.77
2019-03-21T04:07:08.772Z,255.27
2019-03-21T04:09:39.011Z,266.95
2019-03-21T04:12:08.775Z,244.68
2019-03-21T04:14:38.444Z,272.75
2019-03-21T04:17:08.157Z,245.12
2019-03-21T04:19:37.869Z,254.53
2019-03-21T04:22:07.575Z,254.13
2019-03-21T04:24:37.203Z,260.63
2019-03-21T04:27:07.021Z,274.60
2019-03-21T04:29:36.689Z,263.12
2019-03-21T04:32:06.431Z,281.07
2019-03-21T04:34:36.048Z,263.77
2019-03-21T04:37:05.732Z,263.37
2019-03-21T04:39:35.461Z,262.55
2019-03-21T04:42:05.242Z,259.27
2019-03-21T04:44:34.975Z,269.37
2019-03-21T04:47:05.089Z,262.85
2019-03-21T04:49:34.835Z,254.47
2019-03-21T04:52:04.542Z,253.98
2019-03-21T04:54:34.259Z,267.20
2019-03-21T04:57:03.976Z,255.22
2019-03-21T04:59:33.750Z,257.10
2019-03-21T05:02:03.434Z,262.02
2019-03-21T05:04:33.238Z,251.32
2019-03-21T05:07:02.910Z,250.60
2019-03-21T05:09:32.551Z,266.42
2019-03-21T05:12:02.262Z,255.10
2019-03-21T05:14:32.136Z,255.37
2019-03-21T05:17:01.880Z,261.23
2019-03-21T05:19:31.783Z,254.18
2019-03-21T05:22:01.468Z,259.25
2019-03-21T05:24:31.176Z,242.65
2019-03-21T05:27:00.833Z,248.82
2019-03-21T05:29:30.630Z,250.40
2019-03-21T05:32:00.285Z,267.77
2019-03-21T05:34:30.096Z,263.23
2019-03-21T05:36:59.843Z,262.10
2019-03-21T05:39:29.539Z,260.17
2019-03-21T05:41:59.488Z,255.45
2019-03-21T05:44:32.431Z,261.90
2019-03-21T05:47:02.049Z,264.60
2019-03-21T05:49:31.787Z,264.40
2019-03-21T05:52:01.502Z,263.35
2019-03-21T05:54:31.362Z,263.37
2019-03-21T05:57:01.031Z,272.90
2019-03-21T05:59:30.943Z,265.25
2019-03-21T06:02:00.602Z,274.85
2019-03-21T06:04:30.265Z,269.77
2019-03-21T06:07:02.966Z,263.35
2019-03-21T06:09:32.606Z,279.15
2019-03-21T06:12:04.246Z,271.57
2019-03-21T06:14:36.997Z,288.27
2019-03-21T06:17:06.689Z,287.57
2019-03-21T06:19:39.395Z,277.50
2019-03-21T06:22:12.304Z,297.33
2019-03-21T06:24:43.122Z,286.50
2019-03-21T06:27:15.877Z,284.70
2019-03-21T06:29:45.482Z,301.00
2019-03-21T06:32:15.148Z,302.07
2019-03-21T06:34:45.100Z,288.62
2019-03-21T06:37:14.772Z,302.22
2019-03-21T06:39:44.600Z,297.93
2019-03-21T06:42:14.280Z,294.90
2019-03-21T06:44:43.998Z,281.55
2019-03-21T06:47:13.582Z,314.15
2019-03-21T06:49:43.276Z,315.77
2019-03-21T06:52:13.011Z,325.07
2019-03-21T06:54:42.804Z,302.05
2019-03-21T06:57:12.521Z,312.70
2019-03-21T06:59:42.219Z,322.00
2019-03-21T07:02:11.900Z,325.45
2019-03-21T07:04:41.735Z,308.75
2019-03-21T07:07:11.347Z,329.07
2019-03-21T07:09:41.227Z,340.87
2019-03-21T07:12:10.947Z,336.75
2019-03-21T07:14:40.595Z,342.05
2019-03-21T07:17:10.186Z,365.80
2019-03-21T07:19:39.887Z,384.00
2019-03-21T07:22:12.253Z,363.57
2019-03-21T07:24:41.121Z,357.62
2019-03-21T07:27:10.932Z,356.57
2019-03-21T07:29:40.829Z,354.48
2019-03-21T07:32:10.555Z,352.32
2019-03-21T07:34:40.227Z,355.45
2019-03-21T07:37:09.908Z,361.35
2019-03-21T07:39:39.606Z,350.27
2019-03-21T07:42:09.267Z,376.88
2019-03-21T07:44:40.050Z,367.25
2019-03-21T07:47:13.047Z,377.75
2019-03-21T07:49:41.158Z,380.50
2019-03-21T07:52:10.943Z,382.60
2019-03-21T07:54:40.525Z,392.15
2019-03-21T07:57:10.154Z,385.48
2019-03-21T07:59:39.729Z,387.57
2019-03-21T08:02:09.507Z,395.35
2019-03-21T08:04:39.121Z,384.23
2019-03-21T08:07:09.016Z,378.02
2019-03-21T08:09:38.764Z,389.40
2019-03-21T08:12:08.710Z,397.02
2019-03-21T08:14:38.465Z,411.82
2019-03-21T08:17:08.153Z,416.42
2019-03-21T08:19:38.008Z,399.10
2019-03-21T08:22:07.717Z,404.50
2019-03-21T08:24:37.435Z,399.42
2019-03-21T08:27:07.053Z,405.53
2019-03-21T08:29:36.746Z,397.57
2019-03-21T08:32:06.349Z,401.20
2019-03-21T08:34:35.973Z,405.27
2019-03-21T08:37:05.707Z,429.80
2019-03-21T08:39:35.603Z,406.37
2019-03-21T08:42:05.221Z,415.23
2019-03-21T08:44:35.151Z,428.20
2019-03-21T08:47:04.765Z,431.63
2019-03-21T08:49:34.651Z,411.65
2019-03-21T08:52:04.643Z,425.27
2019-03-21T08:54:35.076Z,429.50
2019-03-21T08:57:05.033Z,415.15
2019-03-21T08:59:34.701Z,410.82
2019-03-21T09:02:04.542Z,402.17
2019-03-21T09:04:34.146Z,397.50
2019-03-21T09:07:03.871Z,405.50
2019-03-21T09:09:33.519Z,442.35
2019-03-21T09:12:03.441Z,411.08
2019-03-21T09:14:33.080Z,418.50
2019-03-21T09:17:02.778Z,423.90
2019-03-21T09:19:32.473Z,444.55
2019-03-21T09:22:02.587Z,437.65
2019-03-21T09:24:32.289Z,422.40
2019-03-21T09:27:01.950Z,428.07
2019-03-21T09:29:32.168Z,418.93
2019-03-21T09:32:01.996Z,408.62
2019-03-21T09:34:31.664Z,423.32
2019-03-21T09:37:03.947Z,424.90
2019-03-21T09:39:32.876Z,431.13
2019-03-21T09:42:02.728Z,440.40
2019-03-21T09:44:32.412Z,405.90
2019-03-21T09:47:02.284Z,423.50
2019-03-21T09:49:31.867Z,420.77
2019-03-21T09:52:01.657Z,459.93
2019-03-21T09:54:31.298Z,426.20
2019-03-21T09:57:01.117Z,440.60
2019-03-21T09:59:30.856Z,449.25
2019-03-21T10:02:00.542Z,437.95
2019-03-21T10:04:30.213Z,453.95
2019-03-21T10:06:59.996Z,440.10
2019-03-21T10:09:29.594Z,534.73
2019-03-21T10:11:59.654Z,524.12
2019-03-21T10:14:29.559Z,543.55
2019-03-21T10:16:59.169Z,545.75
2019-03-21T10:19:29.062Z,519.75
2019-03-21T10:21:58.685Z,535.63
2019-03-21T10:24:28.442Z,542.77
2019-03-21T10:26:58.026Z,539.20
2019-03-21T10:29:27.843Z,546.27
2019-03-21T10:31:57.383Z,559.60
2019-03-21T10:34:27.168Z,548.78
2019-03-21T10:36:56.838Z,571.10
2019-03-21T10:39:26.767Z,556.08
2019-03-21T10:41:56.330Z,547.85
2019-03-21T10:44:26.175Z,570.70
2019-03-21T10:46:55.768Z,576.85
2019-03-21T10:49:25.505Z,601.70
2019-03-21T10:51:55.514Z,585.00
2019-03-21T10:54:25.286Z,584.33
2019-03-21T10:56:54.980Z,601.80
2019-03-21T10:59:24.728Z,576.17
2019-03-21T11:01:54.376Z,570.65
2019-03-21T11:04:24.138Z,567.70
2019-03-21T11:06:56.886Z,567.08
2019-03-21T11:09:26.495Z,621.12
2019-03-21T11:11:56.974Z,614.42
2019-03-21T11:14:27.154Z,627.97
2019-03-21T11:16:57.212Z,621.40
2019-03-21T11:19:27.395Z,610.00
2019-03-21T11:22:05.728Z,627.83
2019-03-21T11:24:28.653Z,623.37
2019-03-21T11:26:59.542Z,595.65
2019-03-21T11:29:29.236Z,579.38
2019-03-21T11:31:58.861Z,615.90
2019-03-21T11:34:28.459Z,605.70
2019-03-21T11:36:58.059Z,601.90
2019-03-21T11:39:27.786Z,592.75
2019-03-21T11:41:57.359Z,588.70
2019-03-21T11:44:26.942Z,588.22
2019-03-21T11:46:56.540Z,587.20
2019-03-21T11:49:26.446Z,597.60
2019-03-21T11:51:56.097Z,646.17
2019-03-21T11:54:25.791Z,603.77
2019-03-21T11:56:55.392Z,607.02
2019-03-21T11:59:36.948Z,617.05
2019-03-21T12:01:56.491Z,595.12
2019-03-21T12:04:26.166Z,599.88
2019-03-21T12:06:55.893Z,632.88
2019-03-21T12:09:25.540Z,629.53
2019-03-21T12:11:55.266Z,589.08
2019-03-21T12:14:24.884Z,602.13
2019-03-21T12:16:54.593Z,592.77
2019-03-21T12:19:24.266Z,604.25
2019-03-21T12:21:54.061Z,574.85
2019-03-21T12:24:23.698Z,569.52
2019-03-21T12:26:53.504Z,571.15
2019-03-21T12:29:23.144Z,580.30
2019-03-21T12:31:52.878Z,614.92
2019-03-21T12:34:22.546Z,570.38
2019-03-21T12:36:52.342Z,624.17
2019-03-21T12:39:21.974Z,613.10
2019-03-21T12:41:51.732Z,594.90
2019-03-21T12:44:21.303Z,574.67
2019-03-21T12:46:51.105Z,553.40
2019-03-21T12:49:20.771Z,565.47
2019-03-21T12:51:50.422Z,541.10
2019-03-21T12:54:20.138Z,571.77
2019-03-21T12:56:49.811Z,562.87
2019-03-21T12:59:19.573Z,521.30
2019-03-21T13:01:49.556Z,524.45
2019-03-21T13:04:19.157Z,516.65
2019-03-21T13:06:48.835Z,504.60
2019-03-21T13:09:18.515Z,503.50
2019-03-21T13:11:48.401Z,516.75
2019-03-21T13:14:17.997Z,537.08
2019-03-21T13:16:48.685Z,499.30
2019-03-21T13:19:18.285Z,511.08
2019-03-21T13:21:48.138Z,547.48
2019-03-21T13:24:19.584Z,536.62
2019-03-21T13:26:49.088Z,533.27
2019-03-21T13:29:18.730Z,542.33
2019-03-21T13:31:48.315Z,507.20
2019-03-21T13:34:18.225Z,538.22
2019-03-21T13:36:47.818Z,535.25
2019-03-21T13:39:17.480Z,531.65
2019-03-21T13:41:47.154Z,524.88
2019-03-21T13:44:17.162Z,522.00
2019-03-21T13:46:46.855Z,530.00
2019-03-21T13:49:16.468Z,539.32
2019-03-21T13:51:46.068Z,555.00
2019-03-21T13:54:15.775Z,569.80
2019-03-21T13:56:45.393Z,530.52
2019-03-21T13:59:15.010Z,556.37
2019-03-21T14:01:44.884Z,555.73
2019-03-21T14:04:14.669Z,530.00
2019-03-21T14:06:44.337Z,527.73
2019-03-21T14:09:14.020Z,544.73
2019-03-21T14:11:43.746Z,536.55
2019-03-21T14:14:13.483Z,533.90
2019-03-21T14:16:43.148Z,551.90
2019-03-21T14:19:12.898Z,563.03
2019-03-21T14:21:42.503Z,570.77
2019-03-21T14:24:12.123Z,568.58
2019-03-21T14:26:41.739Z,554.42
2019-03-21T14:29:12.786Z,547.80
2019-03-21T14:31:42.990Z,584.17
2019-03-21T14:34:12.721Z,574.55
2019-03-21T14:36:42.444Z,552.70
2019-03-21T14:39:12.099Z,566.80
2019-03-21T14:41:42.040Z,565.70
2019-03-21T14:44:11.706Z,608.02
2019-03-21T14:46:41.363Z,578.75
2019-03-21T14:49:11.051Z,560.30
2019-03-21T14:51:40.731Z,577.70
2019-03-21T14:54:10.387Z,572.08
2019-03-21T14:56:40.109Z,579.92
2019-03-21T14:59:09.691Z,578.10
2019-03-21T15:01:40.842Z,593.90
2019-03-21T15:04:10.683Z,590.62
2019-03-21T15:06:40.320Z,604.50
2019-03-21T15:09:10.148Z,583.30
2019-03-21T15:11:39.838Z,593.17
2019-03-21T15:14:09.682Z,611.43
2019-03-21T15:16:39.361Z,598.75
2019-03-21T15:19:09.088Z,605.30
2019-03-21T15:21:38.841Z,635.58
2019-03-21T15:24:08.456Z,637.90
2019-03-21T15:26:38.113Z,615.20
2019-03-21T15:29:07.870Z,600.90
2019-03-21T15:31:37.452Z,609.85
2019-03-21T15:34:07.190Z,657.65
2019-03-21T15:36:36.770Z,630.60
2019-03-21T15:39:07.907Z,617.77
2019-03-21T15:41:38.142Z,657.33
2019-03-21T15:44:08.061Z,627.02
2019-03-21T15:46:37.705Z,615.75
2019-03-21T15:49:07.392Z,606.17
2019-03-21T15:51:37.060Z,615.98
2019-03-21T15:54:06.784Z,607.60
2019-03-21T15:56:36.396Z,588.33
2019-03-21T15:59:06.235Z,614.43
2019-03-21T16:01:35.863Z,618.23
2019-03-21T16:04:05.748Z,606.63
2019-03-21T16:06:35.460Z,587.05
2019-03-21T16:09:07.321Z,604.87
2019-03-21T16:11:36.958Z,614.47
2019-03-21T16:14:06.789Z,603.60
2019-03-21T16:16:36.415Z,597.55
2019-03-21T16:19:06.089Z,591.70
2019-03-21T16:21:35.703Z,587.25
2019-03-21T16:24:05.872Z,601.82
2019-03-21T16:26:36.705Z,577.47
2019-03-21T16:29:06.736Z,589.03
2019-03-21T16:31:36.439Z,577.45
2019-03-21T16:34:06.130Z,606.23
2019-03-21T16:36:35.774Z,620.27
2019-03-21T16:39:06.845Z,601.87
2019-03-21T16:41:36.606Z,597.77
2019-03-21T16:44:06.292Z,605.98
2019-03-21T16:46:35.935Z,594.62
2019-03-21T16:49:05.696Z,594.55
2019-03-21T16:51:35.312Z,602.35
2019-03-21T16:54:16.229Z,610.40
2019-03-21T16:56:36.404Z,620.17
2019-03-21T16:59:06.234Z,605.57
2019-03-21T17:01:36.017Z,601.27
2019-03-21T17:04:05.740Z,624.42
2019-03-21T17:06:35.575Z,627.62
2019-03-21T17:09:07.665Z,616.00
2019-03-21T17:11:37.392Z,640.65
2019-03-21T17:14:07.014Z,656.23
2019-03-21T17:16:36.689Z,671.83
2019-03-21T17:19:06.342Z,652.28
2019-03-21T17:21:36.064Z,639.15
2019-03-21T17:24:05.762Z,631.67
2019-03-21T17:26:35.451Z,646.17
2019-03-21T17:29:05.261Z,639.83
2019-03-21T17:31:34.941Z,664.08
2019-03-21T17:34:04.952Z,638.55
2019-03-21T17:36:34.637Z,642.47
2019-03-21T17:39:07.401Z,668.40
2019-03-21T17:41:37.329Z,680.73
2019-03-21T17:44:07.267Z,686.67
2019-03-21T17:46:36.950Z,653.08
2019-03-21T17:49:06.573Z,686.42
2019-03-21T17:51:36.439Z,662.88
2019-03-21T17:54:06.127Z,677.83
2019-03-21T17:56:35.803Z,665.67
2019-03-21T17:59:05.542Z,679.92
2019-03-21T18:01:35.395Z,701.98
2019-03-21T18:04:05.191Z,678.48
2019-03-21T18:06:35.111Z,674.15
2019-03-21T18:09:07.122Z,679.27
2019-03-21T18:11:36.806Z,670.95
2019-03-21T18:14:06.502Z,710.00
2019-03-21T18:16:36.155Z,680.15
2019-03-21T18:19:05.963Z,700.05
2019-03-21T18:21:35.544Z,700.22
2019-03-21T18:24:05.468Z,706.92
2019-03-21T18:26:35.312Z,691.00
2019-03-21T18:29:05.101Z,682.15
2019-03-21T18:31:34.750Z,682.70
2019-03-21T18:34:04.554Z,673.67
2019-03-21T18:36:35.237Z,677.17
2019-03-21T18:39:07.294Z,697.55
2019-03-21T18:41:36.970Z,681.25
2019-03-21T18:44:07.729Z,673.90
2019-03-21T18:46:37.337Z,682.60
2019-03-21T18:49:07.152Z,679.70
2019-03-21T18:51:36.758Z,672.73
2019-03-21T18:54:06.619Z,683.20
2019-03-21T18:56:36.402Z,662.88
2019-03-21T18:59:06.211Z,673.25
2019-03-21T19:01:35.852Z,669.05
2019-03-21T19:04:05.717Z,662.80
2019-03-21T19:06:35.564Z,662.08
2019-03-21T19:09:07.530Z,653.50
2019-03-21T19:11:37.296Z,666.55
2019-03-21T19:14:07.097Z,658.42
2019-03-21T19:16:36.713Z,655.58
2019-03-21T19:19:06.335Z,646.05
2019-03-21T19:21:36.139Z,650.70
2019-03-21T19:24:05.941Z,641.83
2019-03-21T19:26:35.623Z,653.23
2019-03-21T19:29:05.536Z,638.10
2019-03-21T19:31:35.264Z,633.77
2019-03-21T19:34:04.939Z,630.95
2019-03-21T19:36:36.479Z,628.43
2019-03-21T19:39:08.258Z,634.45
2019-03-21T19:41:37.892Z,634.63
2019-03-21T19:44:07.698Z,622.13
2019-03-21T19:46:37.410Z,619.77
2019-03-21T19:49:07.141Z,623.10
2019-03-21T19:51:36.763Z,619.10
2019-03-21T19:54:06.508Z,622.63
2019-03-21T19:56:36.114Z,609.33
2019-03-21T19:59:05.928Z,622.92
2019-03-21T20:01:35.504Z,613.80
2019-03-21T20:04:05.368Z,609.20
2019-03-21T20:06:34.989Z,592.65
2019-03-21T20:09:06.568Z,606.80
2019-03-21T20:11:36.220Z,591.40
2019-03-21T20:14:06.119Z,580.45
2019-03-21T20:16:36.386Z,589.10
2019-03-21T20:19:06.216Z,581.20
2019-03-21T20:21:47.111Z,577.28
2019-03-21T20:24:07.492Z,594.47
2019-03-21T20:26:37.105Z,585.05
2019-03-21T20:29:06.815Z,586.20
2019-03-21T20:31:36.537Z,583.53
2019-03-21T20:34:06.444Z,585.10
2019-03-21T20:36:36.285Z,580.77
2019-03-21T20:39:08.055Z,587.05
2019-03-21T20:41:37.715Z,565.25
2019-03-21T20:44:15.063Z,562.90
2019-03-21T20:46:38.959Z,569.60
2019-03-21T20:49:08.661Z,568.37
2019-03-21T20:51:38.447Z,570.88
2019-03-21T20:54:08.259Z,571.93
2019-03-21T20:56:37.893Z,564.97
2019-03-21T20:59:07.712Z,557.15
2019-03-21T21:01:37.431Z,568.42
2019-03-21T21:04:07.092Z,570.67
2019-03-21T21:06:36.918Z,563.12
2019-03-21T21:09:07.925Z,564.83
2019-03-21T21:11:37.842Z,562.17
2019-03-21T21:14:07.611Z,565.88
2019-03-21T21:16:37.491Z,574.83
2019-03-21T21:19:07.393Z,570.98
2019-03-21T21:21:37.155Z,567.75
2019-03-21T21:24:06.859Z,570.27
2019-03-21T21:26:36.648Z,560.73
2019-03-21T21:29:06.267Z,569.47
2019-03-21T21:31:35.980Z,563.80
2019-03-21T21:34:05.742Z,564.00
2019-03-21T21:36:35.415Z,548.58
2019-03-21T21:39:06.968Z,559.73
2019-03-21T21:41:36.624Z,556.73
2019-03-21T21:44:06.461Z,545.92
2019-03-21T21:46:36.244Z,549.77
2019-03-21T21:49:05.890Z,541.52
2019-03-21T21:51:35.523Z,536.30
2019-03-21T21:54:05.272Z,537.40
2019-03-21T21:56:34.956Z,532.90
2019-03-21T21:59:04.705Z,519.58
2019-03-21T22:01:34.427Z,511.60
2019-03-21T22:04:05.196Z,524.73
2019-03-21T22:06:35.013Z,519.58
2019-03-21T22:09:06.736Z,519.58
2019-03-21T22:11:36.323Z,512.13
2019-03-21T22:14:05.995Z,517.92
2019-03-21T22:16:35.679Z,506.73
2019-03-21T22:19:05.459Z,499.90
2019-03-21T22:21:35.104Z,499.23
2019-03-21T22:24:04.808Z,507.60
2019-03-21T22:26:34.389Z,499.90
2019-03-21T22:29:05.245Z,499.27
2019-03-21T22:31:34.963Z,502.88
2019-03-21T22:34:04.885Z,496.77
2019-03-21T22:36:34.517Z,495.73
2019-03-21T22:39:05.965Z,494.32
2019-03-21T22:41:35.585Z,495.20
2019-03-21T22:44:06.288Z,484.93
2019-03-21T22:46:35.907Z,479.25
2019-03-21T22:49:05.610Z,473.95
2019-03-21T22:51:35.290Z,480.65
2019-03-21T22:54:05.191Z,482.43
2019-03-21T22:56:41.097Z,467.50
2019-03-21T22:59:06.222Z,472.80
2019-03-21T23:01:55.123Z,475.42
2019-03-21T23:04:36.536Z,462.23
2019-03-21T23:07:07.225Z,469.97
2019-03-21T23:09:36.910Z,467.20
2019-03-21T23:12:06.780Z,460.45
2019-03-21T23:14:36.436Z,461.47
2019-03-21T23:17:06.326Z,471.90
2019-03-21T23:19:36.028Z,472.30
2019-03-21T23:22:05.796Z,453.70
2019-03-21T23:24:35.699Z,462.12
2019-03-21T23:27:06.078Z,454.42
2019-03-21T23:29:35.658Z,461.40
2019-03-21T23:32:05.827Z,444.82
2019-03-21T23:34:35.452Z,451.70
2019-03-21T23:37:05.217Z,458.23
2019-03-21T23:39:35.005Z,452.87
2019-03-21T23:42:04.847Z,442.10
2019-03-21T23:44:34.648Z,450.50
2019-03-21T23:47:04.505Z,438.72
2019-03-21T23:49:34.295Z,441.55
2019-03-21T23:52:04.014Z,437.98
2019-03-21T23:54:33.705Z,436.67
2019-03-21T23:57:04.706Z,427.93
2019-03-21T23:59:34.749Z,435.82
